Terminal Aerodrome Forecast
Issued by NWS Detroit/Pontiac, MI

Home | Current Version | Previous Version | Text Only | Print | Product List | Glossary On
Versions: 1 2 3 4 5 6 7 8 9 10 11 12 13 14 15 16 17 18 19 20 21 22 23 24 25 26 27 28 29 30 31
000
FTUS43 KDTX 281350 AAA
TAFDTW
TAF AMD
KDTW 281350Z 2814/2918 00000KT P6SM BKN040
     FM281700 19005KT P6SM SCT045 SCT250
     FM282000 19006KT P6SM BKN050 BKN250
     FM290100 16005KT P6SM BKN150 OVC250
     FM291700 19009KT P6SM BKN050=

USA.gov is the U.S. government's official web portal to all federal, state and local government web resources and services.